Time;durP1;ratioP1;P1;durP2;ratioP2;P2;SDS_P1;SDS_P2;PMS_P1;PMS_P2;Temp;Humidity;BMP_temperature;BMP_pressure;BME280_temperature;BME280_humidity;BME280_pressure;Samples;Min_cycle;Max_cycle;Signal;HPM_P1;HPM_P2
2021/12/13 00:05:50;;;;;;;1.73;0.80;;;12.30;57.20;;;;;;20830886;28;20384;-79
2021/12/13 00:16:11;;;;;;;0.40;0.40;;;12.30;57.30;;;;;;20814964;28;20049;-81
2021/12/13 00:26:12;;;;;;;0.52;0.50;;;12.20;57.30;;;;;;20812982;28;20033;-80
2021/12/13 00:36:19;;;;;;;0.68;0.50;;;12.20;57.30;;;;;;20829174;28;20128;-78
2021/12/13 00:46:21;;;;;;;0.93;0.60;;;12.30;57.40;;;;;;20812672;28;20041;-78
2021/12/13 00:56:47;;;;;;;0.82;0.50;;;12.20;57.40;;;;;;20813462;28;20369;-78
2021/12/13 01:07:25;;;;;;;1.02;0.55;;;12.20;57.40;;;;;;20811683;28;20120;-80
2021/12/13 01:17:56;;;;;;;0.98;0.63;;;12.20;57.50;;;;;;20833156;28;20541;-79
2021/12/13 01:28:08;;;;;;;1.50;0.70;;;12.20;57.50;;;;;;20810796;28;20041;-79
2021/12/13 01:38:14;;;;;;;0.40;0.40;;;12.20;57.60;;;;;;20826830;28;20037;-81
2021/12/13 01:48:25;;;;;;;0.57;0.50;;;12.20;57.60;;;;;;20842157;28;20034;-79
2021/12/13 02:08:27;;;;;;;0.77;0.57;;;12.20;57.80;;;;;;20840544;28;20059;-81
2021/12/13 02:18:33;;;;;;;1.00;0.60;;;12.10;57.80;;;;;;20839416;28;20038;-82
2021/12/13 02:28:38;;;;;;;0.90;0.63;;;12.20;57.90;;;;;;20838217;28;20033;-81
2021/12/13 02:38:39;;;;;;;0.73;0.57;;;12.10;57.90;;;;;;20822155;28;20377;-80
2021/12/13 02:48:45;;;;;;;0.82;0.43;;;12.10;58.20;;;;;;20821228;28;20128;-81
2021/12/13 02:58:47;;;;;;;0.77;0.40;;;12.10;58.10;;;;;;20837098;28;20368;-80
2021/12/13 03:08:51;;;;;;;0.30;0.25;;;12.10;58.10;;;;;;20802949;28;20391;-80
2021/12/13 03:19:06;;;;;;;1.02;0.57;;;12.10;58.20;;;;;;20795833;28;20034;-80
2021/12/13 03:29:11;;;;;;;0.30;0.30;;;12.10;58.30;;;;;;20737143;28;20400;-81
2021/12/13 03:39:18;;;;;;;0.50;0.30;;;12.10;58.30;;;;;;20751526;28;20038;-80
2021/12/13 03:49:21;;;;;;;1.58;0.50;;;12.00;58.40;;;;;;20704122;28;20042;-81
2021/12/13 03:59:27;;;;;;;0.75;0.40;;;12.10;58.50;;;;;;20719171;28;20372;-79
2021/12/13 04:09:29;;;;;;;0.50;0.30;;;12.00;58.50;;;;;;20733458;28;20074;-80
2021/12/13 04:19:58;;;;;;;0.35;0.30;;;12.00;58.70;;;;;;20748225;28;20273;-80
2021/12/13 04:30:14;;;;;;;0.63;0.20;;;12.00;58.70;;;;;;20718390;28;20057;-80
2021/12/13 04:40:24;;;;;;;0.45;0.30;;;12.00;58.70;;;;;;20748019;28;20117;-79
2021/12/13 04:50:29;;;;;;;0.20;0.20;;;12.00;58.70;;;;;;20715897;28;20069;-80
2021/12/13 05:00:36;;;;;;;0.30;0.30;;;12.00;58.70;;;;;;20730012;28;20034;-80
2021/12/13 05:10:37;;;;;;;1.00;0.50;;;12.00;58.80;;;;;;20730304;28;20050;-79
2021/12/13 05:20:39;;;;;;;0.25;0.10;;;12.40;58.00;;;;;;20713238;28;20030;-80
2021/12/13 05:30:56;;;;;;;0.75;0.30;;;13.40;55.70;;;;;;20721318;28;20045;-79
2021/12/13 05:40:58;;;;;;;0.50;0.40;;;14.40;53.20;;;;;;20825301;28;20048;-80
2021/12/13 05:51:00;;;;;;;0.70;0.50;;;15.30;51.00;;;;;;20823408;28;20049;-77
2021/12/13 06:01:01;;;;;;;0.75;0.50;;;16.00;49.20;;;;;;20805310;28;20060;-78
2021/12/13 06:11:07;;;;;;;0.90;0.50;;;16.40;48.20;;;;;;20789122;28;20373;-79
2021/12/13 06:21:23;;;;;;;1.45;0.63;;;16.50;47.60;;;;;;20819905;28;20033;-78
2021/12/13 06:31:36;;;;;;;0.70;0.52;;;16.50;47.30;;;;;;20758701;28;20408;-77
2021/12/13 06:41:50;;;;;;;2.20;1.13;;;16.10;47.90;;;;;;20751216;28;20041;-77
2021/12/13 06:51:54;;;;;;;2.13;1.00;;;15.30;49.50;;;;;;20751155;28;20042;-76
2021/12/13 07:02:07;;;;;;;1.60;1.00;;;14.60;51.10;;;;;;20792182;28;20124;-78
2021/12/13 07:12:13;;;;;;;2.75;1.10;;;14.00;52.50;;;;;;20775565;28;20065;-76
2021/12/13 07:22:21;;;;;;;1.93;1.23;;;13.50;53.70;;;;;;20742605;28;20176;-78
2021/12/13 07:32:25;;;;;;;2.60;1.25;;;13.20;54.60;;;;;;20785991;28;20042;-76
2021/12/13 07:42:26;;;;;;;2.60;1.10;;;13.00;55.30;;;;;;20748218;28;20042;-78
2021/12/13 07:52:29;;;;;;;4.97;1.55;;;12.90;55.70;;;;;;20760478;28;20133;-77
2021/12/13 08:02:36;;;;;;;2.28;1.55;;;12.90;56.10;;;;;;20779140;28;20057;-81
2021/12/13 08:12:42;;;;;;;2.97;1.40;;;12.90;56.30;;;;;;20815356;28;20044;-81
2021/12/13 08:22:44;;;;;;;3.22;1.20;;;12.90;56.40;;;;;;20790389;28;20045;-81
2021/12/13 08:33:06;;;;;;;3.28;1.20;;;13.00;56.50;;;;;;20788700;28;20037;-81
2021/12/13 08:43:07;;;;;;;2.38;1.23;;;12.90;56.50;;;;;;20819281;28;20042;-79
2021/12/13 08:53:10;;;;;;;1.25;0.93;;;12.90;56.60;;;;;;20850456;28;20124;-80
2021/12/13 09:03:22;;;;;;;3.40;1.35;;;12.90;56.70;;;;;;20806848;28;20040;-80
2021/12/13 09:13:36;;;;;;;1.88;1.00;;;13.00;56.70;;;;;;20787412;28;20049;-80
2021/12/13 09:23:40;;;;;;;4.50;2.45;;;12.90;57.50;;;;;;20825166;28;20042;-75
2021/12/13 09:33:43;;;;;;;2.88;1.75;;;12.80;57.00;;;;;;20810235;28;20037;-77
2021/12/13 09:43:46;;;;;;;3.13;1.55;;;12.90;57.30;;;;;;20790842;28;20088;-79
2021/12/13 09:54:05;;;;;;;8.18;2.38;;;12.80;57.40;;;;;;20763660;28;20040;-82
2021/12/13 10:04:26;;;;;;;2.83;1.20;;;12.80;57.70;;;;;;20813797;28;20083;-82
2021/12/13 10:14:32;;;;;;;2.53;1.27;;;12.80;57.70;;;;;;20756945;28;20415;-80
2021/12/13 10:24:38;;;;;;;1.50;1.03;;;12.80;57.70;;;;;;20802061;28;20502;-81
2021/12/13 10:34:43;;;;;;;2.37;1.43;;;12.80;57.80;;;;;;20791492;28;20464;-80
2021/12/13 10:44:48;;;;;;;3.10;1.48;;;12.80;57.80;;;;;;20740201;28;20050;-81
2021/12/13 10:54:53;;;;;;;1.58;1.08;;;12.80;57.90;;;;;;20769875;28;20034;-82
2021/12/13 11:05:00;;;;;;;2.88;1.45;;;12.80;58.00;;;;;;20809831;28;20061;-84
2021/12/13 11:15:06;;;;;;;1.73;0.85;;;12.90;58.00;;;;;;20802000;28;20030;-80
2021/12/13 11:25:21;;;;;;;2.03;1.10;;;13.50;56.70;;;;;;21203450;22;20040;-81
2021/12/13 11:36:00;;;;;;;1.90;1.10;;;14.20;55.10;;;;;;20794612;28;20064;-83
2021/12/13 11:46:19;;;;;;;2.60;1.13;;;15.10;53.30;;;;;;20824753;28;20043;-82
2021/12/13 11:56:42;;;;;;;1.90;1.00;;;15.70;51.70;;;;;;20757313;28;20475;-80
2021/12/13 12:07:04;;;;;;;2.40;0.82;;;16.10;50.60;;;;;;20748193;28;20412;-78
2021/12/13 12:17:05;;;;;;;2.05;1.50;;;16.20;50.10;;;;;;20734889;28;20069;-78
2021/12/13 12:27:14;;;;;;;1.42;0.70;;;16.20;49.80;;;;;;20735242;28;20041;-78
2021/12/13 12:37:27;;;;;;;1.27;0.82;;;15.70;50.50;;;;;;20773489;28;20064;-77
2021/12/13 12:47:37;;;;;;;1.15;0.90;;;15.00;52.00;;;;;;20795170;28;20042;-80
2021/12/13 12:57:37;;;;;;;1.70;0.98;;;14.30;53.40;;;;;;20763303;28;20068;-78
2021/12/13 13:07:38;;;;;;;2.10;1.20;;;13.90;54.60;;;;;;20745571;28;20058;-78
2021/12/13 13:17:44;;;;;;;1.45;0.95;;;13.50;55.60;;;;;;20817265;28;20132;-78
2021/12/13 13:27:45;;;;;;;1.98;1.10;;;13.30;56.50;;;;;;20767307;28;20435;-81
2021/12/13 13:37:46;;;;;;;0.83;0.53;;;13.20;57.10;;;;;;20794047;28;20087;-79
2021/12/13 13:59:15;;;;;;;1.42;0.80;;;13.10;57.60;;;;;;20776849;28;20487;-78
2021/12/13 14:09:25;;;;;;;1.33;0.88;;;13.10;57.60;;;;;;20817955;28;20123;-78
2021/12/13 14:19:33;;;;;;;1.38;0.75;;;13.10;57.60;;;;;;20807796;28;20050;-82
2021/12/13 14:29:33;;;;;;;0.65;0.57;;;13.10;57.50;;;;;;20739452;28;20494;-79
2021/12/13 14:39:41;;;;;;;2.15;1.23;;;13.20;57.70;;;;;;20726535;28;20062;-77
2021/12/13 14:49:44;;;;;;;1.00;0.70;;;13.10;57.80;;;;;;20726207;28;20048;-76
2021/12/13 14:59:49;;;;;;;3.20;1.20;;;13.10;58.00;;;;;;20726340;28;20036;-79
2021/12/13 15:10:12;;;;;;;1.30;0.80;;;13.10;58.10;;;;;;20710817;28;20041;-78
2021/12/13 15:20:18;;;;;;;2.10;1.00;;;13.00;58.20;;;;;;20806205;28;20034;-79
2021/12/13 15:30:24;;;;;;;2.13;1.10;;;13.00;58.30;;;;;;20788407;28;20108;-78
2021/12/13 15:40:29;;;;;;;1.27;0.80;;;13.00;58.50;;;;;;20767908;28;20369;-78
2021/12/13 15:50:33;;;;;;;1.20;0.82;;;13.30;58.00;;;;;;20791377;28;20037;-82
2021/12/13 16:00:34;;;;;;;2.45;1.30;;;14.00;56.50;;;;;;20799574;28;20029;-82
2021/12/13 16:10:36;;;;;;;1.98;1.15;;;14.70;54.80;;;;;;20720709;28;20548;-80
2021/12/13 16:20:40;;;;;;;3.53;1.20;;;15.40;53.10;;;;;;20717787;28;20034;-80
2021/12/13 16:30:44;;;;;;;1.42;0.95;;;15.80;52.10;;;;;;20723281;28;20046;-79
2021/12/13 16:40:45;;;;;;;1.85;1.35;;;16.00;51.40;;;;;;20748363;28;20036;-79
2021/12/13 16:50:45;;;;;;;1.75;0.98;;;15.70;51.70;;;;;;20748073;28;20046;-80
2021/12/13 17:00:49;;;;;;;2.40;1.50;;;15.00;52.90;;;;;;20757074;28;20105;-80
2021/12/13 17:10:55;;;;;;;1.88;1.10;;;14.40;54.30;;;;;;20795704;28;20046;-79
2021/12/13 17:21:15;;;;;;;2.43;1.70;;;13.90;55.40;;;;;;20852550;28;20049;-79
2021/12/13 17:31:16;;;;;;;3.10;1.70;;;13.50;56.60;;;;;;20835689;28;20510;-81
2021/12/13 17:41:16;;;;;;;2.63;1.63;;;13.30;57.50;;;;;;20825591;28;20112;-78
2021/12/13 17:51:25;;;;;;;2.42;1.50;;;13.10;58.10;;;;;;20814212;28;20045;-82
2021/12/13 18:01:34;;;;;;;4.47;1.77;;;13.00;58.50;;;;;;20749599;28;20473;-80
2021/12/13 18:11:38;;;;;;;2.53;1.50;;;13.00;58.80;;;;;;20791827;28;20041;-77
2021/12/13 18:21:39;;;;;;;2.85;1.60;;;13.00;59.00;;;;;;20803986;28;20387;-78
2021/12/13 18:31:46;;;;;;;4.72;1.50;;;13.00;59.50;;;;;;20809067;28;20038;-79
2021/12/13 18:41:54;;;;;;;2.35;1.70;;;13.00;59.00;;;;;;20751585;28;20061;-78
2021/12/13 18:51:55;;;;;;;3.30;1.90;;;13.00;59.00;;;;;;20751292;28;20034;-79
2021/12/13 19:01:59;;;;;;;3.50;1.63;;;13.10;59.10;;;;;;20767224;28;20030;-79
2021/12/13 19:12:02;;;;;;;1.80;1.50;;;13.10;59.10;;;;;;20767108;28;20047;-79
2021/12/13 19:22:03;;;;;;;2.30;1.65;;;13.10;59.20;;;;;;20814510;28;20088;-79
2021/12/13 19:32:14;;;;;;;4.22;1.60;;;13.10;59.20;;;;;;20830023;28;20045;-79
2021/12/13 19:42:20;;;;;;;2.42;1.40;;;13.00;59.10;;;;;;20813401;28;20078;-79
2021/12/13 19:52:34;;;;;;;2.38;1.50;;;13.00;59.20;;;;;;20739820;28;20185;-79
2021/12/13 20:02:44;;;;;;;2.60;1.42;;;13.00;59.30;;;;;;20745742;28;20038;-81
2021/12/13 20:12:54;;;;;;;2.28;1.23;;;13.00;59.30;;;;;;20828779;28;20041;-80
2021/12/13 20:23:00;;;;;;;2.97;1.33;;;13.00;59.40;;;;;;20812151;28;20387;-80
2021/12/13 20:33:09;;;;;;;4.00;1.67;;;13.00;59.50;;;;;;20810730;28;20044;-79
2021/12/13 20:43:16;;;;;;;2.22;1.52;;;13.00;59.60;;;;;;20808353;28;20042;-75
2021/12/13 20:53:19;;;;;;;;;;;13.00;59.60;;;;;;20785895;28;20059;-77
2021/12/13 21:03:25;;;;;;;2.58;1.25;;;12.90;59.60;;;;;;20779783;28;19917;-79
2021/12/13 21:13:29;;;;;;;1.95;1.45;;;12.90;59.60;;;;;;20736661;28;20044;-78
2021/12/13 21:23:36;;;;;;;1.90;1.33;;;12.90;60.40;;;;;;20722073;28;20053;-79
2021/12/13 21:33:47;;;;;;;1.48;1.20;;;12.90;59.80;;;;;;20709123;28;20041;-80
2021/12/13 21:43:53;;;;;;;2.00;1.35;;;12.90;59.80;;;;;;20722338;28;20192;-81
2021/12/13 21:53:56;;;;;;;;;;;12.90;59.90;;;;;;20719772;28;20526;-80
2021/12/13 22:04:18;;;;;;;3.10;1.70;;;12.90;59.90;;;;;;20751202;28;19965;-76
2021/12/13 22:14:42;;;;;;;3.22;1.92;;;12.90;60.60;;;;;;20736779;28;20030;-75
2021/12/13 22:24:46;;;;;;;1.77;1.38;;;12.90;60.10;;;;;;20748651;28;20153;-76
2021/12/13 22:34:53;;;;;;;2.50;1.33;;;12.90;60.10;;;;;;20746943;28;20034;-76
2021/12/13 22:44:54;;;;;;;3.40;1.58;;;12.90;60.20;;;;;;20712746;28;20484;-76
2021/12/13 22:54:55;;;;;;;1.63;1.33;;;12.80;60.20;;;;;;20730304;28;20120;-76
2021/12/13 23:05:02;;;;;;;2.15;1.33;;;12.90;60.30;;;;;;20714827;28;20560;-76
2021/12/13 23:15:04;;;;;;;2.40;1.27;;;12.80;60.30;;;;;;20713308;28;20365;-76
2021/12/13 23:25:07;;;;;;;2.13;1.30;;;12.80;60.40;;;;;;20711686;28;20411;-76
2021/12/13 23:35:18;;;;;;;2.88;1.52;;;12.80;60.40;;;;;;20711250;28;20083;-77
2021/12/13 23:55:48;;;;;;;1.52;1.17;;;12.80;60.50;;;;;;20728390;28;20416;-77
